Time;durP1;ratioP1;P1;durP2;ratioP2;P2;SDS_P1;SDS_P2;PMS_P1;PMS_P2;Temp;Humidity;BMP_temperature;BMP_pressure;BME280_temperature;BME280_humidity;BME280_pressure;Samples;Min_cycle;Max_cycle;Signal;HPM_P1;HPM_P2
2023/03/27 00:02:06;;;;;;;25.00;12.80;;;;;;;6.08;70.48;98665.33;131181;1251;107619;-73
2023/03/27 00:05:11;;;;;;;25.50;14.70;;;;;;;5.98;70.66;98672.58;131253;1250;108675;-71
2023/03/27 00:08:17;;;;;;;27.10;15.20;;;;;;;5.86;70.59;98673.65;131182;1251;107536;-72
2023/03/27 00:11:24;;;;;;;23.80;13.60;;;;;;;5.73;70.51;98671.80;131098;1251;108662;-73
2023/03/27 00:14:29;;;;;;;24.90;13.80;;;;;;;5.63;70.45;98670.11;131092;1251;107488;-73
2023/03/27 00:17:36;;;;;;;24.60;13.00;;;;;;;5.54;70.36;98666.29;131039;1252;107543;-72
2023/03/27 00:20:41;;;;;;;24.40;13.70;;;;;;;5.46;70.28;98669.45;131139;1251;107389;-73
2023/03/27 00:23:47;;;;;;;24.90;13.60;;;;;;;5.37;70.57;98673.63;131069;1252;107417;-72
2023/03/27 00:26:53;;;;;;;27.20;13.30;;;;;;;5.27;70.47;98667.59;131114;1254;108739;-72
2023/03/27 00:29:59;;;;;;;25.50;12.90;;;;;;;5.16;70.40;98668.36;131029;1256;107364;-72
2023/03/27 00:33:07;;;;;;;23.40;12.80;;;;;;;5.04;70.31;98664.48;131284;1254;108705;-72
2023/03/27 00:36:14;;;;;;;24.90;13.40;;;;;;;4.94;70.52;98666.56;131193;1251;107450;-73
2023/03/27 00:39:20;;;;;;;24.50;13.10;;;;;;;4.83;70.39;98661.86;131067;1251;107457;-74
2023/03/27 00:42:26;;;;;;;25.20;13.60;;;;;;;4.74;70.47;98662.45;131051;1251;107488;-74
2023/03/27 00:45:34;;;;;;;29.00;14.50;;;;;;;4.66;70.33;98656.54;131112;1254;108690;-71
2023/03/27 00:48:40;;;;;;;24.90;13.30;;;;;;;4.59;70.44;98656.75;131024;1254;107539;-73
2023/03/27 00:51:48;;;;;;;25.50;13.00;;;;;;;4.55;70.49;98657.52;130994;1263;107400;-73
2023/03/27 00:54:53;;;;;;;23.40;11.80;;;;;;;4.51;70.38;98658.88;131179;1251;107427;-73
2023/03/27 00:58:05;;;;;;;23.80;13.30;;;;;;;4.49;70.49;98655.04;131100;1255;107541;-73
2023/03/27 01:01:13;;;;;;;23.40;13.70;;;;;;;4.49;70.33;98652.91;131302;1250;107553;-73
2023/03/27 01:04:21;;;;;;;27.00;14.10;;;;;;;4.43;70.11;98653.89;131273;1251;107415;-73
2023/03/27 01:07:27;;;;;;;28.20;14.60;;;;;;;4.41;70.19;98654.52;130986;1269;107681;-73
2023/03/27 01:10:44;;;;;;;31.70;16.40;;;;;;;4.38;70.21;98653.16;131205;1251;107494;-73
2023/03/27 01:14:06;;;;;;;32.50;16.70;;;;;;;4.34;70.12;98660.76;131223;1254;108638;-70
2023/03/27 01:17:23;;;;;;;28.50;15.20;;;;;;;4.27;70.02;98664.69;131102;1264;107539;-73
2023/03/27 01:21:12;;;;;;;28.00;14.50;;;;;;;4.15;69.91;98665.64;130971;1254;105668;-73
2023/03/27 01:24:44;;;;;;;27.50;14.70;;;;;;;4.02;69.92;98674.88;131089;1257;107518;-72
2023/03/27 01:28:13;;;;;;;27.40;14.50;;;;;;;3.95;70.07;98679.27;130992;1251;107609;-72
2023/03/27 01:31:43;;;;;;;27.90;14.80;;;;;;;3.89;69.96;98681.33;131046;1251;107548;-72
2023/03/27 01:35:09;;;;;;;28.70;15.30;;;;;;;3.85;70.06;98682.63;130788;1254;107575;-72
2023/03/27 01:38:46;;;;;;;27.60;15.40;;;;;;;3.79;69.99;98682.94;131190;1261;107430;-72
2023/03/27 01:41:58;;;;;;;27.90;15.70;;;;;;;3.74;70.17;98677.04;130956;1250;107242;-72
2023/03/27 01:45:11;;;;;;;27.50;15.30;;;;;;;3.71;70.19;98673.64;131091;1254;107524;-73
2023/03/27 01:48:23;;;;;;;31.70;16.30;;;;;;;3.67;70.12;98669.15;131018;1251;107531;-73
2023/03/27 01:51:35;;;;;;;32.80;16.30;;;;;;;3.65;70.02;98664.02;130987;1251;107511;-72
2023/03/27 01:54:43;;;;;;;28.50;16.30;;;;;;;3.62;70.06;98667.08;131101;1254;107558;-72
2023/03/27 01:57:59;;;;;;;27.40;15.90;;;;;;;3.59;70.15;98663.23;131032;1256;107572;-73
2023/03/27 02:01:08;;;;;;;29.90;14.70;;;;;;;3.56;70.14;98661.02;131126;1253;107483;-74
2023/03/27 02:04:17;;;;;;;30.70;15.60;;;;;;;3.54;70.22;98657.16;131262;1253;107450;-73
2023/03/27 02:07:29;;;;;;;26.80;13.90;;;;;;;3.55;70.19;98652.46;131140;1252;107536;-72
2023/03/27 02:10:39;;;;;;;31.80;16.60;;;;;;;3.60;69.92;98647.84;131178;1254;107508;-73
2023/03/27 02:13:53;;;;;;;31.50;16.60;;;;;;;3.61;70.07;98646.96;131362;1251;107455;-71
2023/03/27 02:17:06;;;;;;;28.90;16.00;;;;;;;3.64;69.95;98648.52;131361;1252;107517;-73
2023/03/27 02:20:16;;;;;;;28.30;16.40;;;;;;;3.63;69.92;98653.81;131087;1263;106540;-72
2023/03/27 02:23:22;;;;;;;29.00;15.60;;;;;;;3.61;69.93;98656.09;131184;1251;108653;-72
2023/03/27 02:26:29;;;;;;;26.10;15.60;;;;;;;3.56;69.96;98656.40;131239;1252;107518;-73
2023/03/27 02:29:47;;;;;;;28.60;15.30;;;;;;;3.52;70.07;98657.98;131059;1254;107537;-72
2023/03/27 02:33:01;;;;;;;25.20;15.20;;;;;;;3.47;70.07;98657.06;131105;1254;107399;-71
2023/03/27 02:36:21;;;;;;;27.80;15.50;;;;;;;3.44;70.12;98661.96;131126;1252;107524;-74
2023/03/27 02:39:37;;;;;;;33.40;16.70;;;;;;;3.39;70.20;98667.93;131054;1263;107259;-71
2023/03/27 02:42:52;;;;;;;38.10;18.20;;;;;;;3.36;70.22;98663.09;131074;1251;107486;-71
2023/03/27 02:46:08;;;;;;;29.60;15.90;;;;;;;3.34;70.14;98661.02;131206;1249;107581;-70
2023/03/27 02:49:20;;;;;;;29.00;15.00;;;;;;;3.27;70.21;98656.00;130987;1251;108026;-71
2023/03/27 02:52:28;;;;;;;;;;;;;;;3.25;70.20;98662.59;131175;1252;107559;-71
2023/03/27 02:55:37;;;;;;;21.00;12.40;;;;;;;3.22;70.32;98669.17;131414;1250;107968;-70
2023/03/27 02:58:52;;;;;;;25.50;14.40;;;;;;;3.20;70.27;98667.11;131071;1254;107920;-71
2023/03/27 03:02:14;;;;;;;37.80;19.20;;;;;;;3.17;70.29;98672.27;131024;1251;108003;-71
2023/03/27 03:05:29;;;;;;;;;;;;;;;3.14;70.42;98674.58;130942;1253;107108;-70
2023/03/27 03:08:37;;;;;;;26.50;14.10;;;;;;;3.09;70.30;98673.92;130873;1252;107529;-70
2023/03/27 03:11:50;;;;;;;30.60;15.30;;;;;;;3.05;70.42;98678.09;131192;1253;107943;-70
2023/03/27 03:14:56;;;;;;;27.00;14.00;;;;;;;3.05;70.46;98676.59;131042;1255;107523;-70
2023/03/27 03:18:01;;;;;;;22.80;13.40;;;;;;;3.04;70.47;98674.73;131146;1250;107897;-71
2023/03/27 03:21:09;;;;;;;22.60;11.80;;;;;;;3.05;70.55;98675.84;130971;1252;107428;-70
2023/03/27 03:24:15;;;;;;;24.30;12.80;;;;;;;3.09;70.61;98670.19;131059;1254;108026;-71
2023/03/27 03:27:21;;;;;;;25.40;14.20;;;;;;;3.14;70.64;98673.92;130891;1251;108114;-70
2023/03/27 03:30:46;;;;;;;27.20;14.70;;;;;;;3.15;70.43;98675.59;130949;1253;107027;-70
2023/03/27 03:33:52;;;;;;;27.20;14.00;;;;;;;3.12;70.46;98672.33;130854;1255;107992;-69
2023/03/27 03:36:58;;;;;;;24.70;13.20;;;;;;;3.10;70.86;98679.09;130804;1249;108086;-70
2023/03/27 03:40:10;;;;;;;22.20;12.70;;;;;;;3.00;72.27;98686.61;131223;1249;108020;-70
2023/03/27 03:43:16;;;;;;;22.50;14.00;;;;;;;2.82;74.71;98693.30;131112;1250;107525;-70
2023/03/27 03:46:22;;;;;;;23.90;13.90;;;;;;;2.69;75.22;98693.56;131122;1251;107508;-69
2023/03/27 03:49:29;;;;;;;24.40;14.10;;;;;;;2.64;75.32;98686.84;130905;1254;108012;-71
2023/03/27 03:52:34;;;;;;;24.90;14.30;;;;;;;2.64;76.25;98687.15;131047;1254;106691;-70
2023/03/27 03:55:40;;;;;;;25.60;14.90;;;;;;;2.69;76.39;98697.09;130878;1254;110556;-70
2023/03/27 03:58:45;;;;;;;21.90;11.90;;;;;;;2.74;77.07;98704.17;130956;1250;108124;-69
2023/03/27 04:01:51;;;;;;;27.30;16.90;;;;;;;2.80;76.96;98709.10;130879;1255;108089;-69
2023/03/27 04:04:57;;;;;;;26.00;15.30;;;;;;;2.85;76.50;98711.20;130884;1250;107465;-70
2023/03/27 04:08:05;;;;;;;25.60;15.50;;;;;;;2.88;76.27;98717.64;130816;1250;110531;-70
2023/03/27 04:11:30;;;;;;;25.10;14.20;;;;;;;2.93;75.29;98716.11;130840;1253;108111;-69
2023/03/27 04:14:56;;;;;;;26.40;15.10;;;;;;;2.98;75.63;98719.05;130657;1249;109431;-70
2023/03/27 04:18:31;;;;;;;25.20;15.20;;;;;;;2.97;75.87;98722.11;131057;1248;108116;-70
2023/03/27 04:21:38;;;;;;;26.30;14.60;;;;;;;2.95;76.51;98722.60;131084;1248;108528;-71
2023/03/27 04:24:49;;;;;;;26.80;14.90;;;;;;;2.96;76.80;98722.19;131038;1261;108198;-71
2023/03/27 04:27:57;;;;;;;27.70;14.20;;;;;;;2.97;77.37;98717.39;130946;1254;106359;-70
2023/03/27 04:31:22;;;;;;;26.40;13.40;;;;;;;2.96;78.15;98713.58;130305;1258;107946;-70
2023/03/27 04:34:57;;;;;;;19.10;11.40;;;;;;;2.99;77.37;98711.86;130485;1259;106024;-71
2023/03/27 04:38:25;;;;;;;20.80;12.20;;;;;;;3.06;78.31;98715.25;130369;1259;108626;-71
2023/03/27 04:41:32;;;;;;;22.40;12.30;;;;;;;3.11;78.11;98718.12;130415;1259;107047;-71
2023/03/27 04:44:38;;;;;;;22.00;12.90;;;;;;;3.20;77.20;98718.05;130414;1254;108139;-70
2023/03/27 04:47:45;;;;;;;48.40;33.10;;;;;;;3.28;77.84;98729.91;130516;1254;108703;-71
2023/03/27 04:50:51;;;;;;;26.00;17.40;;;;;;;3.21;78.45;98728.64;130431;1254;107382;-71
2023/03/27 04:54:10;;;;;;;25.30;16.50;;;;;;;3.14;78.72;98734.36;130444;1259;107500;-71
2023/03/27 04:57:21;;;;;;;25.50;15.50;;;;;;;3.05;80.13;98735.76;130621;1259;107560;-71
2023/03/27 05:00:28;;;;;;;20.80;13.70;;;;;;;2.99;80.91;98743.67;130592;1255;108135;-70
2023/03/27 05:03:55;;;;;;;25.60;15.60;;;;;;;3.00;80.24;98746.59;130572;1270;107839;-71
2023/03/27 05:07:11;;;;;;;23.10;14.40;;;;;;;3.03;80.37;98752.10;130991;1253;108069;-70
2023/03/27 05:10:17;;;;;;;21.10;13.60;;;;;;;3.09;79.48;98756.65;130846;1250;107811;-70
2023/03/27 05:13:23;;;;;;;24.90;15.50;;;;;;;3.20;79.66;98756.52;130845;1251;108038;-72
2023/03/27 05:16:28;;;;;;;22.70;14.60;;;;;;;3.27;79.41;98760.44;130917;1251;107516;-71
2023/03/27 05:19:38;;;;;;;25.50;14.90;;;;;;;3.32;79.90;98758.34;130780;1265;108031;-71
2023/03/27 05:22:44;;;;;;;30.70;18.20;;;;;;;3.36;80.69;98764.53;130906;1255;107551;-70
2023/03/27 05:26:16;;;;;;;38.40;20.50;;;;;;;3.38;81.18;98769.38;131013;1249;107508;-70
2023/03/27 05:29:29;;;;;;;33.30;19.30;;;;;;;3.42;81.35;98767.64;131002;1253;107364;-69
2023/03/27 05:32:39;;;;;;;;;;;;;;;3.51;81.03;98766.94;130983;1251;108050;-70
2023/03/27 05:35:56;;;;;;;23.60;13.70;;;;;;;3.58;81.36;98774.08;130868;1250;107925;-70
2023/03/27 05:39:03;;;;;;;19.20;11.80;;;;;;;3.59;81.48;98769.91;130798;1249;108046;-70
2023/03/27 05:42:16;;;;;;;19.50;11.90;;;;;;;3.60;81.61;98773.90;130825;1254;108122;-71
2023/03/27 05:45:22;;;;;;;20.80;11.50;;;;;;;3.61;82.07;98779.09;130756;1254;107533;-70
2023/03/27 05:48:28;;;;;;;21.40;11.60;;;;;;;3.68;81.31;98777.46;130764;1254;107618;-70
2023/03/27 05:51:38;;;;;;;19.50;10.70;;;;;;;3.77;81.84;98782.83;130800;1254;107456;-70
2023/03/27 05:54:43;;;;;;;20.60;10.70;;;;;;;3.79;81.40;98784.34;130794;1251;108095;-70
2023/03/27 05:57:50;;;;;;;21.80;11.40;;;;;;;3.80;81.65;98789.23;130923;1254;108102;-70
2023/03/27 06:00:55;;;;;;;20.10;10.00;;;;;;;3.81;81.90;98795.64;130775;1255;106902;-71
2023/03/27 06:04:03;;;;;;;17.80;9.60;;;;;;;3.82;81.82;98796.73;130701;1254;108085;-71
2023/03/27 06:07:29;;;;;;;19.90;10.50;;;;;;;3.87;82.09;98804.17;131072;1250;107370;-71
2023/03/27 06:10:36;;;;;;;22.10;12.00;;;;;;;3.95;81.52;98808.74;131115;1253;107476;-71
2023/03/27 06:13:52;;;;;;;20.20;10.50;;;;;;;4.04;81.46;98812.95;130986;1252;107443;-70
2023/03/27 06:17:03;;;;;;;19.10;10.40;;;;;;;4.10;81.27;98815.00;130895;1250;107489;-71
2023/03/27 06:20:23;;;;;;;16.10;6.70;;;;;;;4.13;81.30;98818.44;130943;1254;107918;-70
2023/03/27 06:23:30;;;;;;;13.70;6.30;;;;;;;4.17;80.91;98823.50;130912;1256;107592;-71
2023/03/27 06:26:38;;;;;;;11.50;4.90;;;;;;;4.24;80.69;98822.31;131038;1252;107817;-69
2023/03/27 06:29:44;;;;;;;14.70;6.90;;;;;;;4.36;80.36;98827.33;130962;1252;107468;-71
2023/03/27 06:32:52;;;;;;;10.90;5.50;;;;;;;4.44;80.05;98827.48;131032;1254;108079;-70
2023/03/27 06:35:59;;;;;;;14.60;5.80;;;;;;;4.53;79.45;98836.23;130886;1251;107430;-69
2023/03/27 06:39:09;;;;;;;13.10;6.20;;;;;;;4.55;79.48;98841.36;130849;1253;108321;-70
2023/03/27 06:42:16;;;;;;;11.50;5.10;;;;;;;4.58;79.65;98846.85;130866;1253;107434;-70
2023/03/27 06:45:36;;;;;;;11.40;4.70;;;;;;;4.60;79.12;98851.75;131177;1254;107514;-69
2023/03/27 06:49:05;;;;;;;12.80;5.10;;;;;;;4.60;78.65;98851.27;131087;1251;108021;-68
2023/03/27 06:52:11;;;;;;;12.50;5.10;;;;;;;4.61;78.41;98853.98;130820;1255;108116;-71
2023/03/27 06:55:19;;;;;;;13.10;5.30;;;;;;;4.51;77.56;98854.06;131118;1250;108034;-69
2023/03/27 06:58:30;;;;;;;11.10;4.90;;;;;;;4.42;77.76;98857.53;131083;1254;108096;-70
2023/03/27 07:01:36;;;;;;;10.00;4.90;;;;;;;4.45;78.26;98860.73;130880;1255;108094;-69
2023/03/27 07:05:08;;;;;;;11.60;4.30;;;;;;;4.58;77.92;98868.54;130882;1251;108651;-71
2023/03/27 07:08:20;;;;;;;11.10;5.30;;;;;;;4.55;77.47;98874.64;131035;1251;108018;-68
2023/03/27 07:11:26;;;;;;;12.30;6.40;;;;;;;4.47;77.16;98879.27;131044;1255;108077;-71
2023/03/27 07:14:34;;;;;;;18.70;10.30;;;;;;;4.40;77.21;98885.04;130983;1250;107370;-71
2023/03/27 07:17:42;;;;;;;17.10;10.90;;;;;;;4.38;77.20;98888.55;131116;1255;108032;-70
2023/03/27 07:20:49;;;;;;;16.50;8.90;;;;;;;4.49;76.87;98898.02;130915;1249;108052;-68
2023/03/27 07:23:56;;;;;;;14.90;7.70;;;;;;;4.60;76.30;98900.67;131094;1255;107498;-69
2023/03/27 07:27:12;;;;;;;12.00;8.00;;;;;;;4.70;75.51;98899.02;131030;1251;108043;-69
2023/03/27 07:30:19;;;;;;;13.80;8.80;;;;;;;4.78;75.07;98905.30;130955;1251;107311;-69
2023/03/27 07:33:25;;;;;;;16.10;9.30;;;;;;;4.86;75.82;98906.98;130740;1250;108218;-70
2023/03/27 07:36:32;;;;;;;12.90;8.70;;;;;;;4.89;74.98;98906.52;130886;1248;108306;-71
2023/03/27 07:39:42;;;;;;;;;;;;;;;4.91;74.62;98910.20;131049;1252;107148;-70
2023/03/27 07:42:48;;;;;;;8.50;6.40;;;;;;;4.88;74.13;98910.64;131082;1248;108342;-71
2023/03/27 07:45:58;;;;;;;7.40;5.40;;;;;;;4.83;73.71;98918.61;131155;1254;107462;-68
2023/03/27 07:49:05;;;;;;;9.60;6.20;;;;;;;4.81;73.33;98921.45;131152;1248;108492;-67
2023/03/27 07:52:10;;;;;;;8.90;5.70;;;;;;;4.88;73.73;98928.45;131024;1253;108149;-71
2023/03/27 07:55:26;;;;;;;8.60;5.90;;;;;;;4.94;73.28;98937.77;131330;1251;108001;-71
2023/03/27 07:58:38;;;;;;;9.10;6.10;;;;;;;4.89;73.43;98941.03;131222;1251;106473;-72
2023/03/27 08:01:44;;;;;;;8.10;5.10;;;;;;;4.83;73.45;98946.40;131210;1248;108659;-71
2023/03/27 08:04:50;;;;;;;9.00;5.20;;;;;;;4.84;73.25;98952.28;130816;1255;107524;-70
2023/03/27 08:07:56;;;;;;;8.50;5.10;;;;;;;4.86;73.93;98951.08;131109;1252;108204;-72
2023/03/27 08:11:19;;;;;;;8.80;5.10;;;;;;;4.89;73.59;98960.93;131251;1251;107497;-71
2023/03/27 08:14:25;;;;;;;10.30;4.90;;;;;;;4.76;73.08;98964.52;131108;1250;107407;-71
2023/03/27 08:17:34;;;;;;;11.10;5.80;;;;;;;4.71;73.71;98977.98;131139;1250;107518;-71
2023/03/27 08:20:41;;;;;;;8.60;5.00;;;;;;;4.71;74.37;98977.14;131019;1248;107406;-73
2023/03/27 08:23:47;;;;;;;10.90;5.00;;;;;;;4.74;74.10;98986.42;131296;1249;107701;-71
2023/03/27 08:27:13;;;;;;;9.90;4.90;;;;;;;4.65;73.78;98988.06;131386;1251;108015;-69
2023/03/27 08:30:22;;;;;;;7.60;4.70;;;;;;;4.59;73.49;98991.55;131153;1248;108032;-71
2023/03/27 08:33:30;;;;;;;7.50;4.80;;;;;;;4.52;73.68;98993.95;131123;1250;107434;-71
2023/03/27 08:36:37;;;;;;;7.60;4.70;;;;;;;4.46;73.90;98995.00;131046;1255;107533;-71
2023/03/27 08:39:45;;;;;;;9.80;4.90;;;;;;;4.49;74.04;98997.08;131163;1256;107469;-72
2023/03/27 08:42:56;;;;;;;5.60;3.80;;;;;;;4.49;73.33;99000.92;131239;1249;108688;-71
2023/03/27 08:46:07;;;;;;;6.60;3.60;;;;;;;4.48;72.97;99006.09;130978;1255;107637;-71
2023/03/27 08:49:18;;;;;;;6.80;4.60;;;;;;;4.44;72.07;99012.50;131070;1254;108800;-72
2023/03/27 08:52:43;;;;;;;6.70;3.70;;;;;;;4.42;72.20;99017.42;130925;1254;108682;-71
2023/03/27 08:55:55;;;;;;;5.80;3.60;;;;;;;4.47;72.19;99021.49;130949;1250;107484;-71
2023/03/27 08:59:15;;;;;;;6.30;3.80;;;;;;;4.60;72.34;99012.40;130756;1250;620588;-71
2023/03/27 09:02:37;;;;;;;6.30;3.60;;;;;;;4.71;72.53;99017.14;131101;1250;107600;-72
2023/03/27 09:05:49;;;;;;;5.30;3.20;;;;;;;4.80;71.16;99020.39;130992;1255;107669;-71
2023/03/27 09:09:02;;;;;;;6.60;4.60;;;;;;;4.78;71.25;99022.80;131095;1251;107398;-71
2023/03/27 09:12:19;;;;;;;10.50;4.20;;;;;;;4.81;71.13;99027.11;130995;1250;107823;-71
2023/03/27 09:15:28;;;;;;;7.60;4.30;;;;;;;4.76;70.08;99028.85;130900;1250;106746;-71
2023/03/27 09:18:40;;;;;;;5.00;3.10;;;;;;;4.68;70.55;99033.65;131156;1251;107422;-71
2023/03/27 09:21:56;;;;;;;5.50;3.40;;;;;;;4.55;69.94;99040.86;131142;1254;108103;-68
2023/03/27 09:25:27;;;;;;;6.20;3.80;;;;;;;4.54;70.68;99047.45;131010;1253;108591;-72
2023/03/27 09:28:55;;;;;;;5.40;3.90;;;;;;;4.46;70.11;99048.71;130983;1250;107519;-71
2023/03/27 09:32:11;;;;;;;8.20;4.60;;;;;;;4.34;70.23;99048.25;131137;1254;108098;-71
2023/03/27 09:35:17;;;;;;;;;;;;;;;4.29;70.09;99052.53;130896;1257;107273;-72
2023/03/27 09:38:32;;;;;;;8.10;4.40;;;;;;;4.19;69.75;99051.95;130976;1249;107450;-71
2023/03/27 09:41:45;;;;;;;8.00;4.10;;;;;;;4.14;69.61;99063.69;131052;1255;108108;-70
2023/03/27 09:44:55;;;;;;;7.80;4.20;;;;;;;4.09;69.35;99067.06;131034;1249;107528;-71
2023/03/27 09:48:04;;;;;;;5.30;3.50;;;;;;;4.05;69.08;99070.50;131120;1250;107534;-71
2023/03/27 09:51:40;;;;;;;5.90;3.60;;;;;;;3.93;68.64;99074.04;130987;1249;107469;-72
2023/03/27 09:54:55;;;;;;;4.20;3.10;;;;;;;3.84;68.23;99078.36;131134;1250;108106;-71
2023/03/27 09:58:14;;;;;;;4.60;3.30;;;;;;;3.86;68.67;99073.98;131085;1250;107444;-71
2023/03/27 10:01:33;;;;;;;7.00;4.10;;;;;;;3.94;67.98;99078.33;131051;1254;107567;-70
2023/03/27 10:04:56;;;;;;;6.40;3.90;;;;;;;4.07;67.79;99082.27;130983;1249;108072;-71
2023/03/27 10:08:30;;;;;;;5.00;3.10;;;;;;;4.24;67.38;99085.95;131119;1254;107525;-71
2023/03/27 10:12:03;;;;;;;3.90;2.60;;;;;;;4.21;66.34;99085.05;130987;1250;107527;-71
2023/03/27 10:15:30;;;;;;;8.90;3.30;;;;;;;4.30;65.18;99078.91;130881;1250;107443;-71
2023/03/27 10:18:44;;;;;;;7.80;3.60;;;;;;;4.41;63.59;99091.42;130803;1250;107444;-71
2023/03/27 10:21:54;;;;;;;7.60;3.60;;;;;;;4.58;62.77;99087.81;130965;1250;108421;-71
2023/03/27 10:25:10;;;;;;;6.40;4.10;;;;;;;4.72;61.94;99092.40;130980;1249;107478;-71
2023/03/27 10:28:34;;;;;;;4.40;2.20;;;;;;;4.83;61.16;99091.75;130818;1255;107665;-69
2023/03/27 10:31:56;;;;;;;5.00;2.60;;;;;;;4.82;59.52;99093.45;131074;1251;108049;-73
2023/03/27 10:35:28;;;;;;;3.70;2.20;;;;;;;4.91;60.11;99097.31;131109;1250;107529;-71
2023/03/27 10:38:55;;;;;;;3.40;2.00;;;;;;;5.02;59.84;99098.77;131081;1250;107442;-71
2023/03/27 10:42:17;;;;;;;4.20;2.30;;;;;;;5.16;60.16;99103.23;130988;1271;107560;-71
2023/03/27 10:45:27;;;;;;;8.50;3.50;;;;;;;5.33;61.02;99103.92;131047;1250;107430;-72
2023/03/27 10:48:50;;;;;;;2.40;1.90;;;;;;;5.49;58.84;99105.94;131157;1252;106548;-71
2023/03/27 10:52:10;;;;;;;7.50;3.50;;;;;;;5.49;58.74;99101.53;131019;1250;107543;-72
2023/03/27 10:55:47;;;;;;;3.70;2.00;;;;;;;5.61;59.42;99101.82;131171;1263;108150;-72
2023/03/27 10:58:59;;;;;;;3.20;2.30;;;;;;;5.64;58.26;99103.21;130951;1254;107534;-71
2023/03/27 11:02:16;;;;;;;7.70;2.60;;;;;;;5.72;59.28;99100.88;131085;1252;107440;-72
2023/03/27 11:05:29;;;;;;;4.90;2.30;;;;;;;5.70;58.68;99104.56;131173;1255;106661;-70
2023/03/27 11:08:46;;;;;;;3.00;2.20;;;;;;;5.56;58.33;99101.40;131385;1252;107218;-70
2023/03/27 11:11:57;;;;;;;4.30;2.60;;;;;;;5.56;59.26;99100.77;131336;1253;107561;-71
2023/03/27 11:15:11;;;;;;;3.00;2.30;;;;;;;5.80;60.27;99100.02;131328;1250;107566;-71
2023/03/27 11:18:23;;;;;;;3.70;2.40;;;;;;;5.90;58.71;99099.09;131279;1251;107507;-71
2023/03/27 11:21:42;;;;;;;3.70;2.80;;;;;;;5.83;59.84;99101.39;131191;1251;107462;-71
2023/03/27 11:24:54;;;;;;;4.30;2.60;;;;;;;5.74;59.77;99102.02;131150;1251;107462;-71
2023/03/27 11:28:09;;;;;;;4.60;2.90;;;;;;;5.68;59.55;99103.04;131046;1253;107463;-72
2023/03/27 11:31:23;;;;;;;6.00;3.70;;;;;;;5.55;59.06;99110.83;131075;1254;107513;-71
2023/03/27 11:34:37;;;;;;;3.50;2.50;;;;;;;5.58;60.55;99107.01;131177;1250;107754;-70
2023/03/27 11:38:08;;;;;;;3.30;2.60;;;;;;;5.79;59.04;99109.35;130880;1253;108017;-69
2023/03/27 11:41:18;;;;;;;5.70;3.30;;;;;;;5.77;59.17;99105.71;131104;1255;108152;-69
2023/03/27 11:44:29;;;;;;;3.40;2.50;;;;;;;5.72;58.94;99110.34;130794;1255;107555;-71
2023/03/27 11:48:31;;;;;;;4.30;2.80;;;;;;;5.55;58.47;99109.54;130994;1249;108021;-71
2023/03/27 11:55:30;;;;;;;5.20;3.30;;;;;;;5.56;58.80;99107.35;127018;1296;635763;-71
2023/03/27 11:58:43;;;;;;;8.80;5.50;;;;;;;5.66;59.17;99099.16;130192;1283;107560;-71
2023/03/27 12:01:58;;;;;;;13.00;7.70;;;;;;;5.80;59.96;99098.28;130204;1276;107499;-71
2023/03/27 12:05:17;;;;;;;4.60;3.10;;;;;;;5.87;58.57;99097.05;130189;1267;107645;-72
2023/03/27 12:08:40;;;;;;;5.10;3.30;;;;;;;5.89;58.33;99095.48;130106;1282;168564;-71
2023/03/27 12:11:53;;;;;;;4.90;2.80;;;;;;;5.95;58.34;99098.29;130242;1266;107397;-71
2023/03/27 12:15:13;;;;;;;4.90;3.00;;;;;;;5.98;57.61;99094.48;130431;1282;107476;-70
2023/03/27 12:18:32;;;;;;;58.50;32.80;;;;;;;6.04;57.82;99094.00;130231;1271;107464;-70
2023/03/27 12:21:52;;;;;;;29.20;15.10;;;;;;;6.10;57.66;99095.95;130024;1267;106929;-72
2023/03/27 12:25:22;;;;;;;6.90;3.60;;;;;;;5.98;58.21;99101.70;130078;1267;107517;-70
2023/03/27 12:28:44;;;;;;;4.60;3.40;;;;;;;5.84;59.91;99101.06;130323;1264;107485;-71
2023/03/27 12:32:12;;;;;;;5.40;3.20;;;;;;;5.67;60.53;99104.73;130359;1264;107479;-72
2023/03/27 12:35:21;;;;;;;5.70;3.60;;;;;;;5.47;61.19;99111.79;131095;1257;107348;-71
2023/03/27 12:38:31;;;;;;;4.80;3.50;;;;;;;5.29;61.28;99115.42;130939;1256;106727;-71
2023/03/27 12:41:43;;;;;;;4.20;3.20;;;;;;;5.11;61.57;99123.28;130913;1251;107395;-71
2023/03/27 12:45:16;;;;;;;4.20;3.10;;;;;;;5.06;61.64;99127.63;130944;1251;107367;-71
2023/03/27 12:48:24;;;;;;;4.20;2.90;;;;;;;5.12;61.40;99133.29;131054;1251;108768;-71
2023/03/27 12:51:47;;;;;;;4.20;2.90;;;;;;;5.29;61.35;99132.21;131093;1255;107472;-72
2023/03/27 12:55:29;;;;;;;5.80;3.10;;;;;;;5.54;61.64;99136.32;130996;1258;107439;-71
2023/03/27 12:58:37;;;;;;;4.80;3.30;;;;;;;5.74;61.03;99140.77;130960;1255;109246;-71
2023/03/27 13:02:15;;;;;;;3.70;2.60;;;;;;;5.89;60.75;99152.48;130854;1251;107412;-71
2023/03/27 13:05:45;;;;;;;5.80;3.70;;;;;;;6.01;59.25;99158.80;130983;1251;107561;-71
2023/03/27 13:09:29;;;;;;;26.90;12.90;;;;;;;5.94;57.51;99163.65;130868;1257;108038;-71
2023/03/27 13:13:04;;;;;;;6.00;3.70;;;;;;;5.77;56.87;99173.09;130913;1251;108679;-72
2023/03/27 13:16:25;;;;;;;4.80;2.90;;;;;;;5.62;57.93;99180.14;130825;1251;107445;-72
2023/03/27 13:19:42;;;;;;;5.10;2.80;;;;;;;5.47;57.69;99191.64;130979;1251;107412;-70
2023/03/27 13:23:10;;;;;;;5.80;3.00;;;;;;;5.31;57.40;99198.29;130963;1252;108055;-71
2023/03/27 13:26:31;;;;;;;16.90;7.50;;;;;;;5.23;57.06;99205.27;130952;1256;107482;-71
2023/03/27 13:29:38;;;;;;;7.60;4.00;;;;;;;5.19;56.10;99205.95;131024;1274;107503;-71
2023/03/27 13:33:11;;;;;;;26.00;11.20;;;;;;;5.22;56.33;99203.73;130884;1251;106451;-71
2023/03/27 13:36:21;;;;;;;16.00;8.90;;;;;;;5.26;56.62;99206.48;130857;1251;107513;-70
2023/03/27 13:39:41;;;;;;;11.60;6.40;;;;;;;5.26;56.06;99217.84;130916;1251;107561;-70
2023/03/27 13:42:52;;;;;;;21.20;12.90;;;;;;;5.19;54.73;99225.35;130821;1251;107550;-71
2023/03/27 13:46:02;;;;;;;19.10;12.30;;;;;;;5.25;55.96;99232.17;131007;1257;107369;-71
2023/03/27 13:49:42;;;;;;;18.60;11.60;;;;;;;5.23;54.34;99240.45;131036;1258;107505;-71
2023/03/27 13:53:30;;;;;;;60.70;24.10;;;;;;;5.27;56.49;99252.13;130858;1257;107437;-71
2023/03/27 13:57:11;;;;;;;10.80;6.80;;;;;;;5.30;56.37;99265.77;130735;1257;108043;-71
2023/03/27 14:00:53;;;;;;;9.50;7.20;;;;;;;5.20;56.76;99279.88;131002;1256;107424;-71
2023/03/27 14:04:21;;;;;;;20.50;7.70;;;;;;;5.04;57.24;99290.35;131171;1257;107624;-69
2023/03/27 14:07:45;;;;;;;5.50;3.20;;;;;;;4.89;58.03;99291.87;131084;1265;107501;-70
2023/03/27 14:11:10;;;;;;;10.30;5.10;;;;;;;4.77;57.78;99306.92;131007;1257;108007;-71
2023/03/27 14:14:31;;;;;;;9.90;5.10;;;;;;;4.70;58.44;99309.09;130980;1257;107536;-73
2023/03/27 14:17:52;;;;;;;24.40;13.60;;;;;;;4.66;57.71;99317.02;130816;1251;107764;-69
2023/03/27 14:21:00;;;;;;;7.10;3.80;;;;;;;4.65;58.08;99316.83;130822;1257;107846;-71
2023/03/27 14:24:18;;;;;;;10.40;6.00;;;;;;;4.60;56.10;99314.27;130972;1251;107429;-72
2023/03/27 14:27:28;;;;;;;14.30;8.60;;;;;;;4.55;55.82;99316.64;130916;1254;107419;-73
2023/03/27 14:30:45;;;;;;;9.10;4.60;;;;;;;4.54;55.13;99319.56;130968;1257;107397;-72
2023/03/27 14:34:28;;;;;;;14.60;8.40;;;;;;;4.57;55.42;99322.27;131254;1251;108688;-72
2023/03/27 14:38:15;;;;;;;10.40;5.90;;;;;;;4.60;54.93;99317.95;131044;1257;107508;-71
2023/03/27 14:41:24;;;;;;;15.90;8.50;;;;;;;4.61;55.28;99319.99;131054;1251;107560;-71
2023/03/27 14:44:33;;;;;;;18.30;9.80;;;;;;;4.58;55.85;99322.05;130942;1255;107512;-72
2023/03/27 14:47:46;;;;;;;8.00;4.20;;;;;;;4.42;56.80;99327.31;130944;1251;107413;-72
2023/03/27 14:51:00;;;;;;;26.90;14.70;;;;;;;4.31;57.65;99337.83;130959;1274;107490;-72
2023/03/27 14:54:10;;;;;;;8.40;5.20;;;;;;;4.13;57.34;99344.14;130980;1257;107456;-70
2023/03/27 14:57:26;;;;;;;19.00;11.70;;;;;;;3.92;57.32;99354.62;130878;1251;108125;-71
2023/03/27 15:00:37;;;;;;;8.90;5.00;;;;;;;3.79;57.12;99357.48;130948;1257;107452;-71